Pagrindinis puslapis
METAR-TAF:

METAR-TAF

Oro uostai :

Bogota, Kolumbija

platuma: 04-43N, ilguma: 074-09W, Aukštis: 2547 m

Dabartinis oras

Ataskaita buvo paskelbta 31 minutes, ne 20:00 UTC
Vėjas 12 kt iš Pietryčių, svyruoja nuo Rytų ir Pietų/Pietryčių
Temperatūra 20°C
Drėgmė 40%
Slėgis 1024 hPa
Matomumas 10 km arba daugiau
Su prošvaistėmis ne aukštis 2300 ft

METAR: SKBO 172000Z 13012KT 090V150 9999 BKN023 20/06 A3023 NOSIG

Laikas: 15:31 (20:31 UTC)

Prognozė

Ataskaita buvo paskelbta 4 valandos ir 1 minutes, ne 16:30 UTC
Prognozė galioja nuo 17 metu 18 UTC su 18 metu 18 UTC
Vėjas 13 kt iš Rytų
Matomumas 10 km arba daugiau
Išsisklaidę debesys ne aukštis 1500 ft
Tapsmas
nuo 18 metu 02 UTC su 18 metu 04 UTC
Vėjas 5 kt iš Šiaurės Rytų

TAF: SKBO 171630Z 1718/1818 10013KT 9999 SCT015 BECMG 1802/1804 04005KT TX21/1718Z TN08/1811Z

Orai ataskaitas ir orų prognozės (METAR, TAF).

turimą stotys yra geltonos ir raudonos taškus žemėlapyje.

Perkelti pele per norėdami pamatyti stoties vardą.

Tada spustelėkite, norėdami matyti oro stebėjimo ir prognozės.

Norėdami pakeisti žemėlapį: spustelėkite ant žalios mygtukų su juodo kryžiaus žemyn,; žalią mygtuką su brūkšneliu, jei norite nutolinti; arba žalių rodyklių gretimoms žemėlapius.


METAR-TAF: